Time;durP1;ratioP1;P1;durP2;ratioP2;P2;SDS_P1;SDS_P2;PMS_P1;PMS_P2;Temp;Humidity;BMP_temperature;BMP_pressure;BME280_temperature;BME280_humidity;BME280_pressure;Samples;Min_cycle;Max_cycle;Signal;HPM_P1;HPM_P2
2021/04/11 00:00:41;;;;;;;;;;;10.60;75.40;;;;;;5043530;28;20272;-70
2021/04/11 00:03:11;;;;;;;;;;;10.40;75.90;;;;;;5038677;28;20067;-69
2021/04/11 00:05:40;;;;;;;;;;;10.10;77.10;;;;;;5040128;28;20476;-69
2021/04/11 00:08:07;;;;;;;;;;;10.10;76.90;;;;;;5043754;28;19952;-71
2021/04/11 00:10:34;;;;;;;;;;;10.00;77.30;;;;;;5039834;28;19947;-69
2021/04/11 00:13:00;;;;;;;;;;;9.90;77.00;;;;;;5045020;28;20406;-69
2021/04/11 00:15:26;;;;;;;;;;;9.90;76.90;;;;;;5043998;28;19923;-70
2021/04/11 00:17:51;;;;;;;;;;;9.90;77.00;;;;;;5046192;28;20313;-69
2021/04/11 00:20:17;;;;;;;;;;;9.80;77.70;;;;;;5038730;28;19920;-69
2021/04/11 00:22:43;;;;;;;;;;;9.70;77.60;;;;;;5041727;28;19972;-70
2021/04/11 00:25:10;;;;;;;;;;;9.70;77.70;;;;;;5045146;28;19913;-68
2021/04/11 00:27:36;;;;;;;;;;;9.70;77.70;;;;;;5043080;28;19913;-69
2021/04/11 00:30:02;;;;;;;;;;;9.70;77.60;;;;;;5038799;28;20233;-69
2021/04/11 00:32:28;;;;;;;;;;;9.70;77.50;;;;;;5045013;28;20321;-69
2021/04/11 00:34:53;;;;;;;;;;;9.70;77.40;;;;;;5040197;28;19956;-69
2021/04/11 00:37:19;;;;;;;;;;;9.80;77.60;;;;;;5038297;28;20487;-70
2021/04/11 00:39:44;;;;;;;;;;;9.80;77.90;;;;;;5042696;28;20293;-69
2021/04/11 00:42:16;;;;;;;;;;;9.70;79.30;;;;;;5044496;28;19913;-69
2021/04/11 00:44:42;;;;;;;;;;;9.70;78.60;;;;;;5041423;28;19921;-69
2021/04/11 00:47:08;;;;;;;;;;;9.80;77.50;;;;;;5043075;28;19921;-69
2021/04/11 00:49:41;;;;;;;;;;;10.00;77.00;;;;;;5046315;28;19921;-68
2021/04/11 00:52:08;;;;;;;;;;;10.10;76.30;;;;;;5036554;28;19921;-70
2021/04/11 00:54:34;;;;;;;;;;;10.20;76.10;;;;;;5039323;28;19921;-69
2021/04/11 00:57:00;;;;;;;;;;;10.30;75.40;;;;;;5043152;28;20256;-69
2021/04/11 00:59:26;;;;;;;;;;;10.40;76.20;;;;;;5038585;28;19921;-71
2021/04/11 01:01:52;;;;;;;;;;;10.30;75.90;;;;;;5044394;28;19920;-69
2021/04/11 01:04:18;;;;;;;;;;;10.40;75.90;;;;;;5039321;28;19928;-69
2021/04/11 01:06:48;;;;;;;;;;;10.40;75.20;;;;;;5040774;28;19971;-69
2021/04/11 01:09:19;;;;;;;;;;;10.40;76.00;;;;;;5042446;28;19917;-69
2021/04/11 01:11:45;;;;;;;;;;;10.40;75.50;;;;;;5039846;28;19971;-70
2021/04/11 01:14:12;;;;;;;;;;;10.50;75.40;;;;;;5042122;28;19920;-70
2021/04/11 01:16:38;;;;;;;;;;;10.60;74.70;;;;;;5043634;28;19913;-69
2021/04/11 01:19:05;;;;;;;;;;;10.70;74.50;;;;;;5045420;28;19917;-69
2021/04/11 01:21:40;;;;;;;;;;;10.90;73.70;;;;;;5056841;28;19920;-71
2021/04/11 01:24:12;;;;;;;;;;;10.90;74.10;;;;;;5055218;28;19916;-69
2021/04/11 01:26:38;;;;;;;;;;;10.80;74.80;;;;;;5055245;28;19920;-68
2021/04/11 01:29:04;;;;;;;;;;;10.70;75.80;;;;;;5055773;28;19913;-69
2021/04/11 01:31:30;;;;;;;;;;;10.40;76.80;;;;;;5056361;28;19924;-70
2021/04/11 01:33:56;;;;;;;;;;;10.30;76.20;;;;;;5054132;28;19959;-69
2021/04/11 01:36:23;;;;;;;;;;;10.40;76.90;;;;;;5055534;28;20482;-70
2021/04/11 01:38:49;;;;;;;;;;;10.10;78.30;;;;;;5053262;28;19920;-67
2021/04/11 01:41:21;;;;;;;;;;;10.30;76.90;;;;;;5056233;28;19917;-67
2021/04/11 01:43:48;;;;;;;;;;;10.80;75.10;;;;;;5045233;28;20213;-69
2021/04/11 01:46:17;;;;;;;;;;;11.10;74.80;;;;;;5066873;28;19912;-69
2021/04/11 01:48:44;;;;;;;;;;;11.10;74.00;;;;;;5056898;28;19913;-69
2021/04/11 01:51:11;;;;;;;;;;;11.10;73.70;;;;;;5055193;28;19924;-68
2021/04/11 01:53:37;;;;;;;;;;;11.20;73.80;;;;;;5053347;28;19928;-69
2021/04/11 01:56:04;;;;;;;;;;;11.10;74.90;;;;;;5053261;28;19920;-69
2021/04/11 01:58:30;;;;;;;;;;;11.00;75.30;;;;;;5052673;28;20301;-68
2021/04/11 02:01:02;;;;;;;;;;;10.60;76.90;;;;;;5055579;28;19946;-69
2021/04/11 02:03:28;;;;;;;;;;;10.60;75.80;;;;;;5055599;28;19909;-69
2021/04/11 02:05:53;;;;;;;;;;;10.70;75.50;;;;;;5055904;28;19917;-70
2021/04/11 02:08:24;;;;;;;;;;;10.80;75.30;;;;;;5050892;28;20320;-69
2021/04/11 02:10:53;;;;;;;;;;;10.80;75.50;;;;;;5055267;28;20029;-68
2021/04/11 02:13:22;;;;;;;;;;;10.70;75.80;;;;;;5055488;28;19920;-68
2021/04/11 02:15:51;;;;;;;;;;;10.70;75.30;;;;;;5055890;28;20553;-68
2021/04/11 02:18:17;;;;;;;;;;;10.90;74.80;;;;;;5055099;28;19912;-68
2021/04/11 02:20:43;;;;;;;;;;;11.10;74.60;;;;;;5055514;28;20027;-68
2021/04/11 02:23:10;;;;;;;;;;;11.30;74.00;;;;;;5053500;28;19913;-68
2021/04/11 02:25:42;;;;;;;;;;;11.40;73.50;;;;;;5055377;28;19952;-70
2021/04/11 02:28:09;;;;;;;;;;;11.50;73.20;;;;;;5054875;28;20268;-70
2021/04/11 02:30:44;;;;;;;;;;;11.40;73.50;;;;;;5052813;28;19951;-70
2021/04/11 02:33:09;;;;;;;;;;;11.40;73.40;;;;;;5048016;28;19935;-70
2021/04/11 02:35:44;;;;;;;;;;;11.60;73.10;;;;;;5054574;28;19917;-67
2021/04/11 02:38:10;;;;;;;;;;;11.70;72.50;;;;;;5053784;28;19955;-70
2021/04/11 02:40:38;;;;;;;;;;;11.90;72.00;;;;;;5056037;28;19916;-69
2021/04/11 02:43:04;;;;;;;;;;;11.80;72.50;;;;;;5053385;28;20217;-69
2021/04/11 02:45:35;;;;;;;;;;;11.70;72.80;;;;;;5054647;28;19920;-69
2021/04/11 02:48:01;;;;;;;;;;;11.80;72.50;;;;;;5055124;28;19913;-71
2021/04/11 02:50:29;;;;;;;;;;;11.80;72.50;;;;;;5055453;28;20213;-70
2021/04/11 02:52:59;;;;;;;;;;;11.60;73.30;;;;;;5049286;28;19963;-70
2021/04/11 02:55:26;;;;;;;;;;;11.60;72.90;;;;;;5054113;28;19913;-69
2021/04/11 02:57:55;;;;;;;;;;;11.60;72.80;;;;;;5054411;28;20256;-69
2021/04/11 03:00:23;;;;;;;;;;;11.40;74.90;;;;;;5055031;28;19909;-69
2021/04/11 03:02:48;;;;;;;;;;;11.20;75.10;;;;;;5053759;28;19920;-70
2021/04/11 03:05:15;;;;;;;;;;;11.20;74.80;;;;;;5054459;28;19913;-69
2021/04/11 03:07:43;;;;;;;;;;;11.10;75.80;;;;;;5053797;28;19944;-69
2021/04/11 03:10:17;;;;;;;;;;;10.90;77.00;;;;;;5054706;28;19912;-70
2021/04/11 03:12:43;;;;;;;;;;;10.90;76.00;;;;;;5040231;28;19925;-69
2021/04/11 03:15:11;;;;;;;;;;;10.90;75.80;;;;;;5054071;28;20327;-70
2021/04/11 03:17:37;;;;;;;;;;;10.80;78.50;;;;;;5042097;28;19921;-70
2021/04/11 03:20:05;;;;;;;;;;;10.40;79.00;;;;;;5055404;28;19917;-70
2021/04/11 03:22:30;;;;;;;;;;;10.40;77.90;;;;;;5053318;28;19925;-70
2021/04/11 03:24:56;;;;;;;;;;;10.30;79.60;;;;;;5054546;28;19959;-71
2021/04/11 03:27:40;;;;;;;;;;;10.40;78.00;;;;;;5054761;28;19956;-69
2021/04/11 03:30:15;;;;;;;;;;;10.50;77.50;;;;;;5054395;28;20277;-70
2021/04/11 03:32:49;;;;;;;;;;;10.50;80.00;;;;;;5052890;28;19956;-69
2021/04/11 03:35:17;;;;;;;;;;;10.20;79.60;;;;;;5054606;28;19995;-70
2021/04/11 03:37:43;;;;;;;;;;;10.20;80.30;;;;;;5055225;28;20213;-70
2021/04/11 03:40:11;;;;;;;;;;;10.10;81.50;;;;;;5058695;28;19913;-70
2021/04/11 03:42:38;;;;;;;;;;;10.00;81.90;;;;;;5058589;28;20321;-69
2021/04/11 03:45:07;;;;;;;;;;;10.20;79.20;;;;;;5057953;28;20011;-70
2021/04/11 03:47:58;;;;;;;;;;;10.40;78.60;;;;;;5057742;28;19913;-69
2021/04/11 03:50:32;;;;;;;;;;;10.50;78.50;;;;;;5025355;28;20431;-70
2021/04/11 03:53:03;;;;;;;;;;;10.50;78.50;;;;;;5056539;28;19987;-70
2021/04/11 03:55:30;;;;;;;;;;;10.60;77.70;;;;;;5058884;28;19909;-70
2021/04/11 03:58:00;;;;;;;;;;;10.70;79.60;;;;;;5058444;28;20035;-70
2021/04/11 04:00:27;;;;;;;;;;;10.70;78.00;;;;;;5057701;28;19913;-69
2021/04/11 04:02:55;;;;;;;;;;;10.80;77.30;;;;;;5057778;28;20199;-69
2021/04/11 04:05:25;;;;;;;;;;;10.80;77.50;;;;;;5058466;28;20328;-70
2021/04/11 04:07:52;;;;;;;;;;;10.70;77.70;;;;;;5057183;28;19928;-70
2021/04/11 04:10:19;;;;;;;;;;;10.60;79.70;;;;;;5058417;28;19918;-70
2021/04/11 04:12:50;;;;;;;;;;;10.50;79.00;;;;;;5057306;28;19924;-69
2021/04/11 04:15:27;;;;;;;;;;;10.60;79.00;;;;;;5058359;28;19909;-69
2021/04/11 04:17:53;;;;;;;;;;;10.60;78.20;;;;;;5057126;28;19919;-70
2021/04/11 04:20:26;;;;;;;;;;;10.80;77.50;;;;;;5057626;28;20305;-70
2021/04/11 04:23:14;;;;;;;;;;;10.50;79.10;;;;;;5055996;28;20055;-70
2021/04/11 04:25:39;;;;;;;;;;;10.70;78.20;;;;;;5057856;28;20340;-69
2021/04/11 04:28:10;;;;;;;;;;;11.10;76.50;;;;;;5057657;28;19917;-70
2021/04/11 04:30:36;;;;;;;;;;;11.20;76.40;;;;;;5057741;28;20233;-70
2021/04/11 04:33:04;;;;;;;;;;;11.20;75.80;;;;;;5056635;28;19924;-70
2021/04/11 04:35:36;;;;;;;;;;;11.00;78.70;;;;;;5057399;28;20006;-70
2021/04/11 04:38:20;;;;;;;;;;;10.90;77.40;;;;;;5055972;28;19917;-69
2021/04/11 04:41:04;;;;;;;;;;;10.90;78.20;;;;;;5056871;28;19920;-70
2021/04/11 04:43:36;;;;;;;;;;;10.80;77.70;;;;;;5049509;28;20015;-70
2021/04/11 04:46:10;;;;;;;;;;;11.00;77.20;;;;;;5057359;28;19916;-70
2021/04/11 04:48:38;;;;;;;;;;;10.90;78.00;;;;;;5056036;28;20245;-69
2021/04/11 04:51:06;;;;;;;;;;;10.90;78.10;;;;;;5057393;28;19909;-70
2021/04/11 04:53:57;;;;;;;;;;;10.90;77.50;;;;;;5052622;28;19921;-70
2021/04/11 04:56:25;;;;;;;;;;;10.80;79.40;;;;;;5057243;28;19966;-70
2021/04/11 04:59:10;;;;;;;;;;;10.50;80.80;;;;;;5057487;28;20284;-70
2021/04/11 05:01:37;;;;;;;;;;;10.30;80.70;;;;;;5055318;28;20332;-70
2021/04/11 05:04:10;;;;;;;;;;;10.30;80.90;;;;;;5057007;28;19913;-69
2021/04/11 05:06:46;;;;;;;;;;;10.30;80.30;;;;;;5057939;28;19935;-69
2021/04/11 05:09:19;;;;;;;;;;;10.40;79.90;;;;;;5055766;28;19927;-69
2021/04/11 05:11:57;;;;;;;;;;;10.50;79.40;;;;;;5056630;28;20279;-69
2021/04/11 05:14:27;;;;;;;;;;;10.40;81.20;;;;;;5054115;28;20440;-68
2021/04/11 05:16:55;;;;;;;;;;;10.30;80.00;;;;;;5056387;28;19912;-68
2021/04/11 05:19:33;;;;;;;;;;;10.50;79.80;;;;;;5056976;28;19924;-71
2021/04/11 05:22:03;;;;;;;;;;;10.50;79.30;;;;;;5055442;28;20395;-70
2021/04/11 05:24:36;;;;;;;;;;;10.60;79.20;;;;;;5056265;28;19920;-70
2021/04/11 05:27:04;;;;;;;;;;;10.70;78.70;;;;;;5056537;28;19917;-69
2021/04/11 05:29:52;;;;;;;;;;;10.80;78.60;;;;;;5057066;28;19913;-70
2021/04/11 05:32:18;;;;;;;;;;;10.90;78.40;;;;;;5054266;28;19916;-70
2021/04/11 05:34:44;;;;;;;;;;;10.90;78.80;;;;;;5056341;28;20277;-70
2021/04/11 05:37:28;;;;;;;;;;;11.10;77.10;;;;;;5055417;28;19913;-70
2021/04/11 05:39:53;;;;;;;;;;;11.20;77.30;;;;;;5056189;28;19955;-69
2021/04/11 05:42:19;;;;;;;;;;;11.20;78.20;;;;;;5055831;28;19987;-69
2021/04/11 05:44:54;;;;;;;;;;;11.00;79.10;;;;;;5056434;28;19920;-70
2021/04/11 05:47:25;;;;;;;;;;;10.90;79.50;;;;;;5055903;28;20249;-70
2021/04/11 05:50:01;;;;;;;;;;;10.80;79.10;;;;;;5056210;28;19913;-70
2021/04/11 05:52:38;;;;;;;;;;;10.90;78.80;;;;;;5054636;28;20006;-69
2021/04/11 05:55:04;;;;;;;;;;;11.00;79.20;;;;;;5050029;28;20295;-71
2021/04/11 05:57:40;;;;;;;;;;;11.10;78.10;;;;;;5056019;28;19913;-70
2021/04/11 06:00:20;;;;;;;;;;;11.30;77.70;;;;;;5055993;28;19916;-70
2021/04/11 06:02:54;;;;;;;;;;;11.50;76.50;;;;;;5054938;28;19917;-70
2021/04/11 06:05:20;;;;;;;;;;;11.70;76.90;;;;;;5054638;28;19920;-70
2021/04/11 06:07:49;;;;;;;;;;;11.90;75.30;;;;;;5054735;28;19912;-70
2021/04/11 06:10:37;;;;;;;;;;;12.00;74.80;;;;;;5054585;28;19913;-70
2021/04/11 06:13:18;;;;;;;;;;;12.20;74.40;;;;;;5048504;28;19998;-69
2021/04/11 06:15:52;;;;;;;;;;;12.30;73.80;;;;;;5055903;28;19912;-70
2021/04/11 06:18:17;;;;;;;;;;;12.30;74.10;;;;;;5055788;28;20009;-69
2021/04/11 06:20:45;;;;;;;;;;;12.40;73.60;;;;;;5055758;28;19955;-71
2021/04/11 06:23:10;;;;;;;;;;;12.60;73.40;;;;;;5054376;28;19913;-69
2021/04/11 06:25:45;;;;;;;;;;;12.90;72.10;;;;;;5054159;28;20000;-70
2021/04/11 06:28:13;;;;;;;;;;;13.10;71.10;;;;;;5055437;28;19916;-70
2021/04/11 06:30:43;;;;;;;;;;;13.30;70.50;;;;;;5054046;28;19913;-70
2021/04/11 06:33:15;;;;;;;;;;;13.20;70.50;;;;;;5055369;28;19925;-69
2021/04/11 06:35:43;;;;;;;;;;;13.30;71.10;;;;;;5055494;28;19912;-69
2021/04/11 06:38:12;;;;;;;;;;;13.30;70.00;;;;;;5054389;28;19920;-69
2021/04/11 06:40:57;;;;;;;;;;;13.40;69.70;;;;;;5055328;28;20373;-69
2021/04/11 06:43:23;;;;;;;;;;;13.50;69.00;;;;;;5053621;28;19924;-70
2021/04/11 06:45:48;;;;;;;;;;;13.70;68.80;;;;;;5055584;28;19909;-71
2021/04/11 06:48:24;;;;;;;;;;;13.70;68.50;;;;;;5055518;28;19909;-70
2021/04/11 06:51:09;;;;;;;;;;;13.60;68.30;;;;;;5054285;28;20294;-70
2021/04/11 06:53:44;;;;;;;;;;;13.40;69.80;;;;;;5051770;28;20381;-69
2021/04/11 06:56:27;;;;;;;;;;;13.40;69.90;;;;;;5053985;28;19916;-70
2021/04/11 06:58:53;;;;;;;;;;;13.30;69.40;;;;;;5055470;28;20261;-70
2021/04/11 07:01:27;;;;;;;;;;;13.30;69.50;;;;;;5053302;28;19913;-69
2021/04/11 07:04:12;;;;;;;;;;;13.30;69.40;;;;;;5054730;28;20373;-70
2021/04/11 07:06:46;;;;;;;;;;;13.30;70.00;;;;;;5054980;28;19919;-70
2021/04/11 07:09:11;;;;;;;;;;;13.50;70.60;;;;;;5053036;28;20016;-69
2021/04/11 07:11:56;;;;;;;;;;;13.70;70.10;;;;;;5054697;28;20023;-70
2021/04/11 07:14:40;;;;;;;;;;;13.90;69.30;;;;;;5057966;28;20386;-72
2021/04/11 07:17:26;;;;;;;;;;;13.80;69.10;;;;;;5050669;28;20309;-70
2021/04/11 07:20:12;;;;;;;;;;;13.80;69.40;;;;;;5053749;28;19971;-68
2021/04/11 07:22:50;;;;;;;;;;;13.90;69.80;;;;;;5056172;28;19920;-70
2021/04/11 07:25:23;;;;;;;;;;;14.00;69.20;;;;;;5059334;28;19913;-70
2021/04/11 07:28:04;;;;;;;;;;;14.10;69.80;;;;;;5058517;28;20417;-70
2021/04/11 07:30:44;;;;;;;;;;;14.20;68.90;;;;;;5059271;28;19920;-69
2021/04/11 07:33:19;;;;;;;;;;;14.30;68.70;;;;;;5058195;28;19917;-70
2021/04/11 07:35:53;;;;;;;;;;;14.20;68.20;;;;;;5059180;28;20055;-70
2021/04/11 07:38:37;;;;;;;;;;;14.40;68.70;;;;;;5055134;28;19920;-70
2021/04/11 07:41:05;;;;;;;;;;;14.40;68.70;;;;;;5059217;28;19912;-70
2021/04/11 07:43:42;;;;;;;;;;;14.50;68.00;;;;;;5057832;28;19966;-70
2021/04/11 07:46:27;;;;;;;;;;;14.60;68.00;;;;;;5058765;28;19925;-70
2021/04/11 07:48:59;;;;;;;;;;;14.90;67.10;;;;;;5058073;28;19944;-70
2021/04/11 07:51:47;;;;;;;;;;;15.00;66.50;;;;;;5056904;28;19912;-70
2021/04/11 07:54:28;;;;;;;;;;;15.00;66.00;;;;;;5047119;28;19994;-70
2021/04/11 07:57:09;;;;;;;;;;;14.90;66.00;;;;;;5057720;28;19983;-70
2021/04/11 07:59:53;;;;;;;;;;;14.90;65.80;;;;;;5058026;28;20336;-69
2021/04/11 08:02:21;;;;;;;;;;;14.90;65.30;;;;;;5058499;28;19913;-68
2021/04/11 08:04:59;;;;;;;;;;;15.20;65.60;;;;;;5058031;28;19908;-67
2021/04/11 08:07:28;;;;;;;;;;;15.10;64.50;;;;;;5041038;28;19936;-68
2021/04/11 08:10:14;;;;;;;;;;;14.90;65.30;;;;;;5056003;28;19912;-68
2021/04/11 08:12:58;;;;;;;;;;;15.00;65.60;;;;;;5056929;28;19935;-67
2021/04/11 08:15:32;;;;;;;;;;;15.20;65.00;;;;;;5054770;28;19944;-69
2021/04/11 08:18:01;;;;;;;;;;;15.70;63.70;;;;;;5057425;28;19986;-69
2021/04/11 08:20:45;;;;;;;;;;;15.70;63.80;;;;;;5058319;28;19913;-70
2021/04/11 08:23:29;;;;;;;;;;;15.70;63.90;;;;;;5055582;28;19913;-70
2021/04/11 08:25:59;;;;;;;;;;;15.70;63.20;;;;;;5054864;28;20352;-69
2021/04/11 08:28:25;;;;;;;;;;;15.90;62.60;;;;;;5042286;28;19919;-69
2021/04/11 08:30:59;;;;;;;;;;;15.70;62.90;;;;;;5053467;28;20008;-69
2021/04/11 08:33:43;;;;;;;;;;;15.60;64.30;;;;;;5055082;28;20340;-70
2021/04/11 08:36:18;;;;;;;;;;;15.90;63.10;;;;;;5048758;28;19912;-69
2021/04/11 08:38:50;;;;;;;;;;;15.70;62.60;;;;;;5054452;28;19912;-70
2021/04/11 08:41:35;;;;;;;;;;;15.90;63.30;;;;;;5057489;28;20283;-70
2021/04/11 08:44:13;;;;;;;;;;;16.20;62.30;;;;;;5056605;28;19920;-70
2021/04/11 08:46:57;;;;;;;;;;;16.10;62.00;;;;;;5056557;28;20305;-69
2021/04/11 08:49:24;;;;;;;;;;;16.10;62.00;;;;;;5057225;28;19913;-70
2021/04/11 08:52:02;;;;;;;;;;;16.40;61.30;;;;;;5056098;28;20344;-69
2021/04/11 08:54:43;;;;;;;;;;;16.40;61.00;;;;;;5056127;28;19912;-70
2021/04/11 08:57:29;;;;;;;;;;;16.50;60.50;;;;;;5056780;28;20333;-69
2021/04/11 08:59:56;;;;;;;;;;;16.30;61.00;;;;;;5042226;28;19909;-70
2021/04/11 09:02:28;;;;;;;;;;;16.70;62.00;;;;;;5057015;28;19939;-70
2021/04/11 09:05:16;;;;;;;;;;;17.30;59.70;;;;;;5056001;28;19991;-70
2021/04/11 09:07:42;;;;;;;;;;;17.40;59.00;;;;;;5055018;28;20001;-71
2021/04/11 09:10:26;;;;;;;;;;;17.90;59.30;;;;;;5056772;28;19959;-70
2021/04/11 09:12:59;;;;;;;;;;;18.10;57.30;;;;;;5057036;28;19923;-70
2021/04/11 09:15:43;;;;;;;;;;;19.10;57.50;;;;;;5055826;28;19955;-70
2021/04/11 09:18:15;;;;;;;;;;;20.30;55.00;;;;;;5056563;28;20225;-70
2021/04/11 09:21:00;;;;;;;;;;;20.70;54.10;;;;;;5056567;28;19988;-69
2021/04/11 09:23:44;;;;;;;;;;;20.20;54.00;;;;;;5054529;28;19921;-70
2021/04/11 09:26:21;;;;;;;;;;;20.20;54.10;;;;;;5056222;28;20298;-69
2021/04/11 09:28:46;;;;;;;;;;;21.20;55.10;;;;;;5056475;28;20218;-69
2021/04/11 09:31:31;;;;;;;;;;;21.10;56.10;;;;;;5056636;28;19913;-68
2021/04/11 09:34:02;;;;;;;;;;;20.40;56.40;;;;;;5050470;28;20310;-70
2021/04/11 09:36:46;;;;;;;;;;;19.60;58.70;;;;;;5055291;28;19917;-70
2021/04/11 09:39:38;;;;;;;;;;;19.20;59.10;;;;;;5055008;28;19909;-70
2021/04/11 09:42:08;;;;;;;;;;;19.60;59.40;;;;;;5025685;28;20225;-69
2021/04/11 09:44:36;;;;;;;;;;;20.50;57.90;;;;;;5055796;28;19913;-69
2021/04/11 09:47:22;;;;;;;;;;;21.20;56.00;;;;;;5056728;28;19920;-71
2021/04/11 09:50:00;;;;;;;;;;;20.30;55.10;;;;;;5056185;28;19940;-70
2021/04/11 09:52:28;;;;;;;;;;;20.30;56.70;;;;;;5049894;28;19974;-70
2021/04/11 09:55:12;;;;;;;;;;;19.70;56.60;;;;;;5055689;28;20194;-70
2021/04/11 09:57:41;;;;;;;;;;;18.90;58.60;;;;;;5051400;28;20206;-70
2021/04/11 10:00:12;;;;;;;;;;;18.90;59.30;;;;;;5054766;28;19935;-71
2021/04/11 10:02:37;;;;;;;;;;;18.50;59.60;;;;;;5054237;28;20309;-70
2021/04/11 10:05:22;;;;;;;;;;;18.00;61.00;;;;;;5055777;28;20097;-71
2021/04/11 10:07:47;;;;;;;;;;;17.90;60.60;;;;;;5047453;28;19915;-70
2021/04/11 10:10:33;;;;;;;;;;;18.10;60.30;;;;;;5053647;28;20362;-69
2021/04/11 10:13:07;;;;;;;;;;;18.40;59.70;;;;;;5043101;28;19917;-69
2021/04/11 10:15:32;;;;;;;;;;;18.30;59.30;;;;;;5053594;28;19948;-69
2021/04/11 10:17:58;;;;;;;;;;;18.10;60.00;;;;;;5054440;28;19968;-69
2021/04/11 10:20:31;;;;;;;;;;;18.50;60.20;;;;;;5054079;28;20015;-70
2021/04/11 10:23:17;;;;;;;;;;;18.70;59.10;;;;;;5050860;28;20039;-70
2021/04/11 10:25:49;;;;;;;;;;;18.70;58.50;;;;;;5051220;28;19913;-69
2021/04/11 10:28:21;;;;;;;;;;;18.40;59.70;;;;;;5054860;28;20007;-69
2021/04/11 10:30:55;;;;;;;;;;;18.40;59.70;;;;;;5053121;28;20015;-70
2021/04/11 10:33:25;;;;;;;;;;;18.40;58.60;;;;;;5043977;28;19925;-69
2021/04/11 10:35:55;;;;;;;;;;;18.50;59.40;;;;;;5055390;28;19960;-70
2021/04/11 10:38:30;;;;;;;;;;;19.20;59.00;;;;;;5055762;28;19921;-70
2021/04/11 10:41:14;;;;;;;;;;;20.20;57.10;;;;;;5053194;28;19913;-70
2021/04/11 10:43:55;;;;;;;;;;;19.70;57.20;;;;;;5054850;28;19913;-70
2021/04/11 10:46:35;;;;;;;;;;;19.90;56.90;;;;;;5051556;28;19913;-70
2021/04/11 10:49:19;;;;;;;;;;;19.90;57.70;;;;;;5046554;28;20036;-69
2021/04/11 10:51:50;;;;;;;;;;;19.60;57.30;;;;;;5045693;28;19925;-68
2021/04/11 10:54:51;;;;;;;;;;;19.10;58.70;;;;;;5053144;28;20007;-70
2021/04/11 10:57:34;;;;;;;;;;;18.80;58.60;;;;;;4995269;28;19921;-68
2021/04/11 11:00:14;;;;;;;;;;;18.60;59.30;;;;;;5014065;28;19916;-68
2021/04/11 11:02:52;;;;;;;;;;;18.80;59.70;;;;;;5016226;28;19936;-68
2021/04/11 11:05:24;;;;;;;;;;;19.10;58.80;;;;;;5033636;28;19913;-68
2021/04/11 11:08:03;;;;;;;;;;;18.70;59.70;;;;;;5028666;28;19913;-70
2021/04/11 11:10:48;;;;;;;;;;;18.90;58.10;;;;;;5032015;28;19919;-70
2021/04/11 11:13:21;;;;;;;;;;;19.10;57.40;;;;;;5031183;28;20015;-71
2021/04/11 11:16:05;;;;;;;;;;;19.10;56.50;;;;;;5035092;28;19959;-70
2021/04/11 11:18:49;;;;;;;;;;;18.90;57.10;;;;;;5035051;28;19920;-70
2021/04/11 11:21:44;;;;;;;;;;;18.60;57.20;;;;;;5035158;28;19913;-70
2021/04/11 11:24:39;;;;;;;;;;;18.90;56.20;;;;;;5016931;28;19945;-70
2021/04/11 11:27:23;;;;;;;;;;;19.10;56.00;;;;;;5035202;28;20340;-70
2021/04/11 11:30:07;;;;;;;;;;;19.50;56.60;;;;;;5035216;28;19917;-69
2021/04/11 11:32:55;;;;;;;;;;;19.90;55.80;;;;;;5031384;28;20435;-69
2021/04/11 11:35:21;;;;;;;;;;;19.50;55.50;;;;;;5022941;28;19921;-71
2021/04/11 11:38:07;;;;;;;;;;;18.50;56.80;;;;;;5028190;28;19913;-70
2021/04/11 11:40:44;;;;;;;;;;;18.20;58.40;;;;;;5015679;28;19910;-70
2021/04/11 11:43:09;;;;;;;;;;;18.30;57.90;;;;;;5027341;28;20323;-69
2021/04/11 11:45:46;;;;;;;;;;;18.90;58.80;;;;;;5034405;28;20012;-69
2021/04/11 11:48:17;;;;;;;;;;;19.80;57.40;;;;;;5035293;28;19924;-70
2021/04/11 11:50:55;;;;;;;;;;;20.00;56.40;;;;;;5027211;28;20016;-69
2021/04/11 11:53:28;;;;;;;;;;;20.20;55.20;;;;;;5029397;28;19947;-69
2021/04/11 11:56:00;;;;;;;;;;;20.40;56.40;;;;;;5035235;28;19944;-69
2021/04/11 11:58:29;;;;;;;;;;;20.10;55.20;;;;;;5027609;28;20455;-68
2021/04/11 12:00:55;;;;;;;;;;;19.20;56.50;;;;;;5027955;28;19913;-70
2021/04/11 12:03:35;;;;;;;;;;;18.90;58.00;;;;;;5030154;28;19928;-70
2021/04/11 12:06:27;;;;;;;;;;;19.40;57.70;;;;;;5027470;28;19918;-69
2021/04/11 12:09:13;;;;;;;;;;;20.60;55.30;;;;;;5036246;28;20309;-69
2021/04/11 12:11:42;;;;;;;;;;;21.60;54.80;;;;;;5053662;28;20428;-69
2021/04/11 12:14:39;;;;;;;;;;;22.10;53.00;;;;;;5036504;28;20292;-69
2021/04/11 12:17:12;;;;;;;;;;;21.40;55.40;;;;;;5023043;28;19917;-70
2021/04/11 12:19:41;;;;;;;;;;;21.60;54.20;;;;;;5036357;28;19920;-69
2021/04/11 12:22:06;;;;;;;;;;;21.50;55.50;;;;;;5036329;28;19921;-69
2021/04/11 12:24:33;;;;;;;;;;;21.90;51.80;;;;;;5037691;28;19962;-69
2021/04/11 12:27:01;;;;;;;;;;;21.20;54.10;;;;;;5037784;28;19920;-68
2021/04/11 12:29:30;;;;;;;;;;;20.30;54.60;;;;;;5034981;28;19932;-70
2021/04/11 12:31:59;;;;;;;;;;;19.80;55.50;;;;;;5036830;28;20198;-69
2021/04/11 12:34:34;;;;;;;;;;;19.90;56.00;;;;;;5037387;28;20007;-70
2021/04/11 12:37:08;;;;;;;;;;;20.40;54.70;;;;;;5034858;28;20669;-69
2021/04/11 12:39:34;;;;;;;;;;;19.90;56.70;;;;;;5037777;28;19916;-69
2021/04/11 12:42:11;;;;;;;;;;;20.00;56.80;;;;;;5034442;28;19913;-69
2021/04/11 12:44:44;;;;;;;;;;;20.50;55.00;;;;;;5036783;28;19917;-70
2021/04/11 12:47:12;;;;;;;;;;;20.40;54.90;;;;;;5036722;28;19909;-70
2021/04/11 12:49:56;;;;;;;;;;;20.80;53.00;;;;;;5036698;28;19953;-69
2021/04/11 12:52:22;;;;;;;;;;;21.30;52.50;;;;;;5033946;28;19921;-70
2021/04/11 12:55:11;;;;;;;;;;;21.50;51.00;;;;;;5033387;28;19921;-69
2021/04/11 12:57:39;;;;;;;;;;;20.20;51.90;;;;;;5029785;28;19920;-69
2021/04/11 13:00:14;;;;;;;;;;;20.20;53.30;;;;;;5037023;28;20314;-69
2021/04/11 13:02:39;;;;;;;;;;;19.90;54.20;;;;;;5023276;28;19917;-69
2021/04/11 13:05:09;;;;;;;;;;;20.10;53.40;;;;;;5028364;28;19921;-69
2021/04/11 13:07:43;;;;;;;;;;;19.60;54.30;;;;;;5034334;28;19913;-70
2021/04/11 13:10:26;;;;;;;;;;;19.60;53.90;;;;;;5031307;28;19921;-70
2021/04/11 13:13:11;;;;;;;;;;;20.00;53.30;;;;;;5034404;28;19917;-70
2021/04/11 13:15:55;;;;;;;;;;;20.40;52.70;;;;;;5037223;28;19921;-70
2021/04/11 13:18:30;;;;;;;;;;;20.00;52.80;;;;;;5033305;28;19917;-69
2021/04/11 13:20:55;;;;;;;;;;;19.60;53.70;;;;;;5017444;28;20261;-69
2021/04/11 13:23:30;;;;;;;;;;;19.60;54.40;;;;;;5030814;28;19917;-69
2021/04/11 13:26:12;;;;;;;;;;;19.70;53.80;;;;;;5031244;28;19943;-70
2021/04/11 13:29:07;;;;;;;;;;;20.20;54.00;;;;;;5021466;28;20310;-70
2021/04/11 13:31:40;;;;;;;;;;;21.30;52.50;;;;;;4998484;28;20139;-70
2021/04/11 13:34:08;;;;;;;;;;;21.20;52.40;;;;;;5032635;28;19953;-70
2021/04/11 13:36:41;;;;;;;;;;;21.10;52.30;;;;;;5036390;28;20183;-70
2021/04/11 13:39:27;;;;;;;;;;;20.80;52.90;;;;;;5030418;28;19941;-70
2021/04/11 13:42:10;;;;;;;;;;;20.90;51.70;;;;;;5034281;28;19936;-69
2021/04/11 13:44:39;;;;;;;;;;;20.80;52.40;;;;;;5036591;28;19912;-69
2021/04/11 13:47:10;;;;;;;;;;;20.20;52.20;;;;;;5031589;28;20012;-69
2021/04/11 13:49:45;;;;;;;;;;;19.80;53.20;;;;;;5028796;28;19967;-69
2021/04/11 13:52:14;;;;;;;;;;;19.50;52.70;;;;;;5034928;28;19925;-68
2021/04/11 13:54:40;;;;;;;;;;;19.30;53.60;;;;;;5033093;28;20253;-68
2021/04/11 13:57:24;;;;;;;;;;;19.20;54.50;;;;;;5034327;28;19920;-68
2021/04/11 14:00:09;;;;;;;;;;;19.00;55.00;;;;;;5036142;28;19917;-68
2021/04/11 14:02:48;;;;;;;;;;;18.80;55.90;;;;;;5035104;28;20007;-67
2021/04/11 14:05:19;;;;;;;;;;;18.60;55.40;;;;;;5035098;28;19921;-70
2021/04/11 14:07:44;;;;;;;;;;;18.50;55.70;;;;;;5034465;28;19913;-68
2021/04/11 14:10:27;;;;;;;;;;;18.60;56.00;;;;;;5036139;28;20008;-70
2021/04/11 14:13:05;;;;;;;;;;;18.50;57.10;;;;;;5035431;28;20063;-70
2021/04/11 14:15:32;;;;;;;;;;;18.50;57.40;;;;;;5035605;28;20341;-70
2021/04/11 14:18:04;;;;;;;;;;;18.40;57.40;;;;;;5030274;28;19921;-70
2021/04/11 14:20:47;;;;;;;;;;;18.50;57.30;;;;;;5032063;28;19920;-70
2021/04/11 14:23:32;;;;;;;;;;;19.00;57.20;;;;;;5034141;28;19921;-70
2021/04/11 14:26:21;;;;;;;;;;;19.40;56.90;;;;;;5033631;28;19920;-69
2021/04/11 14:28:53;;;;;;;;;;;19.40;56.80;;;;;;5028473;28;19920;-69
2021/04/11 14:31:37;;;;;;;;;;;19.20;56.40;;;;;;5028343;28;19919;-69
2021/04/11 14:34:16;;;;;;;;;;;19.30;56.90;;;;;;5033543;28;19923;-71
2021/04/11 14:37:02;;;;;;;;;;;19.10;57.10;;;;;;5031300;28;19924;-70
2021/04/11 14:39:32;;;;;;;;;;;18.70;57.20;;;;;;5034418;28;19917;-69
2021/04/11 14:42:09;;;;;;;;;;;18.60;57.60;;;;;;5033290;28;19967;-71
2021/04/11 14:44:45;;;;;;;;;;;18.70;57.70;;;;;;5027593;28;20012;-70
2021/04/11 14:47:17;;;;;;;;;;;18.60;57.30;;;;;;5034844;28;19991;-69
2021/04/11 14:49:44;;;;;;;;;;;18.60;57.70;;;;;;5033268;28;19913;-70
2021/04/11 14:52:36;;;;;;;;;;;18.40;57.90;;;;;;5029739;28;19964;-70
2021/04/11 14:55:05;;;;;;;;;;;18.10;58.60;;;;;;5028466;28;19917;-69